createdAt,value
2022-11-27T00:01:34.240Z,3.80
2022-11-27T00:04:02.819Z,3.70
2022-11-27T00:06:32.185Z,3.80
2022-11-27T00:09:03.403Z,3.80
2022-11-27T00:11:32.726Z,3.70
2022-11-27T00:14:01.646Z,3.70
2022-11-27T00:16:30.538Z,3.80
2022-11-27T00:18:59.508Z,3.90
2022-11-27T00:21:29.677Z,4.00
2022-11-27T00:23:59.523Z,4.10
2022-11-27T00:26:35.996Z,4.10
2022-11-27T00:29:06.284Z,4.00
2022-11-27T00:31:37.446Z,3.90
2022-11-27T00:34:08.683Z,3.90
2022-11-27T00:36:37.864Z,3.90
2022-11-27T00:39:06.675Z,3.90
2022-11-27T00:41:36.501Z,3.80
2022-11-27T00:44:05.599Z,3.80
2022-11-27T00:46:35.636Z,3.80
2022-11-27T00:49:05.854Z,3.90
2022-11-27T00:51:34.649Z,3.90
2022-11-27T00:54:03.159Z,3.90
2022-11-27T00:56:35.441Z,3.80
2022-11-27T00:59:06.075Z,3.70
2022-11-27T01:01:36.734Z,3.70
2022-11-27T01:04:06.846Z,3.60
2022-11-27T01:06:35.949Z,3.60
2022-11-27T01:09:05.594Z,3.50
2022-11-27T01:11:35.992Z,3.50
2022-11-27T01:14:08.337Z,3.50
2022-11-27T01:16:42.576Z,3.40
2022-11-27T01:19:12.762Z,3.40
2022-11-27T01:21:41.342Z,3.40
2022-11-27T01:24:11.055Z,3.30
2022-11-27T01:26:39.457Z,3.30
2022-11-27T01:29:09.491Z,3.30
2022-11-27T01:31:38.474Z,3.30
2022-11-27T01:34:08.833Z,3.30
2022-11-27T01:36:37.450Z,3.30
2022-11-27T01:39:06.224Z,3.20
2022-11-27T01:41:35.649Z,3.20
2022-11-27T01:44:25.326Z,3.20
2022-11-27T01:46:56.913Z,3.20
2022-11-27T01:49:29.939Z,3.10
2022-11-27T01:52:02.124Z,3.20
2022-11-27T01:54:33.886Z,3.20
2022-11-27T01:57:06.252Z,3.30
2022-11-27T01:59:35.069Z,3.30
2022-11-27T02:02:05.380Z,3.30
2022-11-27T02:04:33.909Z,3.30
2022-11-27T02:07:02.650Z,3.30
2022-11-27T02:09:31.472Z,3.30
2022-11-27T02:12:03.854Z,3.30
2022-11-27T02:14:41.436Z,3.20
2022-11-27T02:17:16.529Z,3.20
2022-11-27T02:19:57.028Z,3.20
2022-11-27T02:22:36.425Z,3.20
2022-11-27T02:25:11.705Z,3.10
2022-11-27T02:27:58.536Z,3.10
2022-11-27T02:30:29.446Z,3.20
2022-11-27T02:33:00.623Z,3.20
2022-11-27T02:35:33.584Z,3.20
2022-11-27T02:38:06.066Z,3.20
2022-11-27T02:40:39.693Z,3.10
2022-11-27T02:43:09.852Z,3.10
2022-11-27T02:45:41.985Z,3.00
2022-11-27T02:48:11.542Z,3.00
2022-11-27T02:50:41.741Z,3.00
2022-11-27T02:53:15.326Z,3.10
2022-11-27T02:55:44.161Z,3.10
2022-11-27T02:58:16.297Z,3.10
2022-11-27T03:00:47.569Z,3.20
2022-11-27T03:03:18.955Z,3.20
2022-11-27T03:05:49.249Z,3.30
2022-11-27T03:08:21.406Z,3.30
2022-11-27T03:10:53.527Z,3.20
2022-11-27T03:13:22.158Z,3.20
2022-11-27T03:15:58.237Z,3.10
2022-11-27T03:18:35.350Z,3.00
2022-11-27T03:21:06.816Z,3.00
2022-11-27T03:23:35.231Z,2.90
2022-11-27T03:26:03.682Z,2.90
2022-11-27T03:28:32.659Z,2.80
2022-11-27T03:31:02.491Z,2.90
2022-11-27T03:33:31.018Z,3.00
2022-11-27T03:35:59.438Z,3.00
2022-11-27T03:38:27.960Z,3.00
2022-11-27T03:41:01.746Z,3.00
2022-11-27T03:43:32.996Z,2.90
2022-11-27T03:46:07.542Z,2.90
2022-11-27T03:48:41.441Z,2.80
2022-11-27T03:51:12.658Z,2.80
2022-11-27T03:53:50.245Z,2.70
2022-11-27T03:56:26.109Z,2.70
2022-11-27T03:58:57.503Z,2.80
2022-11-27T04:01:28.179Z,2.70
2022-11-27T04:03:56.760Z,2.70
2022-11-27T04:06:25.301Z,2.60
2022-11-27T04:08:53.729Z,2.60
2022-11-27T04:11:22.104Z,2.60
2022-11-27T04:13:52.170Z,2.50
2022-11-27T04:16:20.840Z,2.50
2022-11-27T04:18:50.651Z,2.40
2022-11-27T04:21:19.880Z,2.40
2022-11-27T04:23:48.449Z,2.30
2022-11-27T04:26:16.872Z,2.30
2022-11-27T04:28:45.310Z,2.30
2022-11-27T04:31:13.841Z,2.30
2022-11-27T04:33:42.282Z,2.30
2022-11-27T04:36:12.109Z,2.50
2022-11-27T04:38:40.654Z,2.90
2022-11-27T04:41:09.011Z,3.10
2022-11-27T04:43:37.435Z,3.40
2022-11-27T04:46:06.270Z,3.60
2022-11-27T04:48:34.911Z,3.70
2022-11-27T04:51:03.305Z,4.00
2022-11-27T04:53:33.098Z,4.10
2022-11-27T04:56:01.583Z,4.20
2022-11-27T04:58:30.005Z,4.30
2022-11-27T05:00:58.474Z,4.40
2022-11-27T05:03:27.025Z,4.50
2022-11-27T05:05:56.724Z,4.50
2022-11-27T05:08:25.306Z,4.40
2022-11-27T05:11:02.399Z,4.30
2022-11-27T05:13:30.870Z,4.20
2022-11-27T05:15:59.381Z,4.10
2022-11-27T05:18:27.982Z,4.00
2022-11-27T05:20:59.913Z,4.00
2022-11-27T05:23:28.860Z,3.90
2022-11-27T05:25:57.769Z,3.80
2022-11-27T05:28:28.055Z,3.70
2022-11-27T05:30:56.605Z,3.60
2022-11-27T05:33:25.118Z,3.40
2022-11-27T05:35:53.522Z,3.30
2022-11-27T05:38:21.935Z,3.30
2022-11-27T05:40:50.436Z,3.20
2022-11-27T05:43:18.896Z,3.20
2022-11-27T05:45:48.669Z,3.10
2022-11-27T05:48:17.064Z,3.00
2022-11-27T05:50:45.659Z,2.90
2022-11-27T05:53:14.129Z,2.80
2022-11-27T05:55:42.681Z,2.80
2022-11-27T05:58:11.090Z,2.80
2022-11-27T06:00:39.600Z,2.80
2022-11-27T06:03:09.635Z,2.90
2022-11-27T06:05:40.734Z,3.00
2022-11-27T06:08:09.151Z,3.00
2022-11-27T06:10:39.435Z,3.00
2022-11-27T06:13:08.110Z,2.90
2022-11-27T06:15:38.804Z,2.90
2022-11-27T06:18:08.837Z,2.90
2022-11-27T06:20:42.250Z,2.80
2022-11-27T06:23:12.334Z,2.80
2022-11-27T06:25:40.757Z,2.90
2022-11-27T06:28:09.495Z,2.90
2022-11-27T06:30:38.897Z,2.90
2022-11-27T06:33:07.314Z,2.80
2022-11-27T06:35:37.100Z,2.60
2022-11-27T06:38:05.784Z,2.40
2022-11-27T06:40:34.208Z,2.20
2022-11-27T06:43:02.613Z,2.00
2022-11-27T06:45:31.275Z,1.80
2022-11-27T06:47:59.953Z,1.70
2022-11-27T06:50:28.548Z,1.60
2022-11-27T06:52:58.333Z,1.50
2022-11-27T06:55:26.858Z,1.40
2022-11-27T06:57:55.246Z,1.20
2022-11-27T07:00:23.885Z,1.20
2022-11-27T07:02:55.430Z,1.10
2022-11-27T07:05:24.805Z,1.00
2022-11-27T07:07:53.578Z,1.00
2022-11-27T07:10:23.769Z,1.00
2022-11-27T07:12:52.176Z,0.90
2022-11-27T07:15:20.619Z,0.90
2022-11-27T07:17:49.017Z,0.80
2022-11-27T07:20:17.666Z,0.80
2022-11-27T07:22:46.105Z,0.70
2022-11-27T07:25:15.607Z,0.70
2022-11-27T07:27:45.563Z,0.60
2022-11-27T07:30:14.833Z,0.60
2022-11-27T07:32:43.349Z,0.60
2022-11-27T07:35:11.873Z,0.80
2022-11-27T07:37:40.422Z,1.10
2022-11-27T07:40:09.575Z,1.20
2022-11-27T07:42:39.068Z,1.10
2022-11-27T07:45:10.412Z,1.10
2022-11-27T07:47:39.360Z,1.10
2022-11-27T07:50:09.264Z,1.10
2022-11-27T07:52:41.486Z,1.10
2022-11-27T07:55:11.223Z,1.20
2022-11-27T07:57:39.664Z,1.30
2022-11-27T08:00:10.801Z,1.40
2022-11-27T08:02:39.251Z,1.50
2022-11-27T08:05:12.758Z,1.60
2022-11-27T08:07:41.952Z,1.70
2022-11-27T08:10:10.703Z,1.90
2022-11-27T08:12:39.197Z,2.10
2022-11-27T08:15:10.593Z,2.40
2022-11-27T08:17:39.133Z,2.60
2022-11-27T08:20:08.798Z,2.80
2022-11-27T08:22:38.007Z,3.00
2022-11-27T08:25:07.219Z,3.10
2022-11-27T08:27:36.344Z,3.20
2022-11-27T08:30:06.046Z,3.20
2022-11-27T08:32:35.846Z,3.30
2022-11-27T08:35:04.345Z,3.30
2022-11-27T08:37:32.898Z,3.30
2022-11-27T08:40:01.382Z,3.40
2022-11-27T08:42:29.930Z,3.50
2022-11-27T08:44:58.369Z,3.60
2022-11-27T08:47:26.807Z,3.70
2022-11-27T08:49:56.813Z,3.70
2022-11-27T08:52:26.053Z,3.80
2022-11-27T08:54:57.502Z,3.90
2022-11-27T08:57:26.698Z,3.90
2022-11-27T08:59:55.116Z,3.90
2022-11-27T09:02:23.551Z,4.00
2022-11-27T09:04:52.013Z,4.20
2022-11-27T09:07:21.888Z,4.30
2022-11-27T09:09:50.359Z,4.40
2022-11-27T09:12:18.837Z,4.40
2022-11-27T09:14:47.240Z,4.50
2022-11-27T09:17:15.705Z,4.50
2022-11-27T09:19:44.154Z,4.60
2022-11-27T09:22:12.615Z,4.70
2022-11-27T09:24:43.040Z,4.70
2022-11-27T09:27:11.701Z,4.80
2022-11-27T09:29:40.215Z,4.80
2022-11-27T09:32:08.706Z,4.90
2022-11-27T09:34:37.816Z,4.90
2022-11-27T09:37:06.590Z,4.90
2022-11-27T09:39:35.143Z,5.00
2022-11-27T09:42:06.278Z,5.00
2022-11-27T09:44:39.964Z,5.10
2022-11-27T09:47:14.610Z,5.10
2022-11-27T09:49:46.122Z,5.20
2022-11-27T09:52:21.640Z,5.20
2022-11-27T09:54:56.561Z,5.30
2022-11-27T09:57:30.598Z,5.40
2022-11-27T10:00:01.543Z,5.50
2022-11-27T10:02:32.590Z,5.50
2022-11-27T10:05:17.858Z,5.60
2022-11-27T10:08:11.110Z,5.80
2022-11-27T10:10:44.776Z,5.90
2022-11-27T10:13:24.790Z,6.00
2022-11-27T10:15:57.058Z,6.10
2022-11-27T10:18:31.661Z,6.20
2022-11-27T10:21:03.354Z,6.30
2022-11-27T10:23:42.813Z,6.40
2022-11-27T10:26:17.263Z,6.40
2022-11-27T10:28:53.306Z,6.40
2022-11-27T10:31:32.856Z,6.50
2022-11-27T10:34:03.846Z,6.60
2022-11-27T10:36:36.013Z,6.60
2022-11-27T10:39:05.685Z,6.70
2022-11-27T10:41:51.368Z,6.70
2022-11-27T10:44:26.974Z,6.80
2022-11-27T10:46:59.421Z,6.90
2022-11-27T10:49:27.886Z,7.10
2022-11-27T10:51:56.612Z,7.10
2022-11-27T10:54:28.393Z,7.20
2022-11-27T10:57:35.922Z,7.30
2022-11-27T11:00:11.859Z,7.30
2022-11-27T11:02:40.887Z,7.40
2022-11-27T11:05:57.414Z,7.50
2022-11-27T11:08:18.490Z,7.60
2022-11-27T11:10:52.433Z,7.70
2022-11-27T11:13:22.839Z,7.70
2022-11-27T11:15:58.396Z,7.80
2022-11-27T11:18:29.483Z,7.90
2022-11-27T11:20:59.738Z,8.00
2022-11-27T11:23:33.399Z,8.00
2022-11-27T11:26:05.029Z,8.20
2022-11-27T11:28:39.537Z,8.20
2022-11-27T11:31:18.200Z,8.20
2022-11-27T11:33:52.546Z,8.30
2022-11-27T11:36:20.993Z,8.30
2022-11-27T11:38:50.167Z,8.30
2022-11-27T11:41:19.094Z,8.40
2022-11-27T11:43:59.800Z,8.40
2022-11-27T11:46:32.125Z,8.40
2022-11-27T11:49:03.012Z,8.40
2022-11-27T11:51:43.112Z,8.40
2022-11-27T11:54:25.045Z,8.40
2022-11-27T11:56:53.998Z,8.50
2022-11-27T11:59:29.512Z,8.40
2022-11-27T12:02:20.681Z,8.30
2022-11-27T12:05:16.807Z,8.20
2022-11-27T12:08:00.205Z,8.20
2022-11-27T12:10:32.598Z,8.20
2022-11-27T12:13:08.203Z,8.40
2022-11-27T12:15:40.718Z,8.50
2022-11-27T12:18:15.800Z,8.50
2022-11-27T12:20:52.708Z,8.40
2022-11-27T12:23:55.079Z,8.50
2022-11-27T12:26:30.411Z,8.60
2022-11-27T12:29:09.683Z,8.70
2022-11-27T12:31:50.042Z,8.70
2022-11-27T12:34:27.040Z,8.80
2022-11-27T12:37:13.733Z,8.70
2022-11-27T12:39:54.416Z,8.50
2022-11-27T12:42:27.008Z,8.50
2022-11-27T12:45:00.384Z,8.50
2022-11-27T12:47:37.328Z,8.60
2022-11-27T12:50:17.983Z,8.50
2022-11-27T12:52:49.907Z,8.40
2022-11-27T12:55:21.553Z,8.40
2022-11-27T12:57:52.266Z,8.40
2022-11-27T13:00:23.032Z,8.40
2022-11-27T13:03:00.924Z,8.40
2022-11-27T13:05:35.479Z,8.30
2022-11-27T13:08:07.217Z,8.30
2022-11-27T13:10:39.750Z,8.30
2022-11-27T13:13:12.233Z,8.30
2022-11-27T13:15:44.590Z,8.30
2022-11-27T13:18:19.219Z,8.20
2022-11-27T13:20:52.511Z,8.20
2022-11-27T13:23:21.690Z,8.20
2022-11-27T13:25:53.001Z,8.20
2022-11-27T13:28:27.704Z,8.20
2022-11-27T13:30:57.179Z,8.10
2022-11-27T13:33:36.933Z,8.10
2022-11-27T13:36:09.229Z,8.10
2022-11-27T13:38:41.920Z,8.10
2022-11-27T13:41:21.698Z,8.00
2022-11-27T13:43:50.571Z,8.00
2022-11-27T13:46:22.512Z,7.90
2022-11-27T13:48:56.470Z,7.80
2022-11-27T13:51:28.981Z,7.90
2022-11-27T13:54:09.324Z,7.90
2022-11-27T13:56:38.030Z,7.80
2022-11-27T13:59:17.800Z,7.80
2022-11-27T14:02:01.065Z,7.80
2022-11-27T14:04:31.191Z,7.80
2022-11-27T14:07:03.604Z,7.80
2022-11-27T14:09:38.277Z,7.90
2022-11-27T14:12:22.597Z,7.80
2022-11-27T14:15:03.645Z,7.80
2022-11-27T14:17:38.262Z,7.70
2022-11-27T14:20:20.468Z,7.60
2022-11-27T14:23:11.106Z,7.60
2022-11-27T14:25:40.583Z,7.60
2022-11-27T14:28:15.761Z,7.50
2022-11-27T14:30:48.416Z,7.50
2022-11-27T14:33:20.918Z,7.50
2022-11-27T14:35:50.627Z,7.50
2022-11-27T14:38:20.759Z,7.40
2022-11-27T14:40:51.659Z,7.40
2022-11-27T14:43:23.876Z,7.30
2022-11-27T14:45:56.536Z,7.30
2022-11-27T14:48:26.393Z,7.30
2022-11-27T14:51:01.106Z,7.20
2022-11-27T14:53:31.042Z,7.10
2022-11-27T14:56:00.089Z,7.00
2022-11-27T14:58:30.313Z,7.00
2022-11-27T15:01:01.495Z,6.90
2022-11-27T15:03:30.296Z,6.80
2022-11-27T15:06:00.296Z,6.70
2022-11-27T15:08:33.223Z,6.60
2022-11-27T15:11:02.181Z,6.30
2022-11-27T15:13:32.650Z,6.20
2022-11-27T15:16:04.779Z,6.20
2022-11-27T15:18:37.148Z,6.10
2022-11-27T15:21:11.465Z,6.00
2022-11-27T15:23:45.520Z,5.90
2022-11-27T15:26:18.874Z,5.90
2022-11-27T15:28:53.126Z,5.80
2022-11-27T15:31:28.551Z,5.70
2022-11-27T15:34:08.067Z,5.60
2022-11-27T15:36:39.561Z,5.60
2022-11-27T15:39:28.630Z,5.50
2022-11-27T15:41:58.562Z,5.50
2022-11-27T15:44:29.382Z,5.40
2022-11-27T15:46:59.174Z,5.40
2022-11-27T15:49:27.917Z,5.30
2022-11-27T15:51:58.243Z,5.20
2022-11-27T15:54:28.170Z,5.10
2022-11-27T15:56:56.682Z,5.00
2022-11-27T15:59:27.292Z,5.00
2022-11-27T16:01:56.130Z,4.80
2022-11-27T16:04:24.609Z,4.70
2022-11-27T16:06:53.003Z,4.70
2022-11-27T16:09:21.497Z,4.60
2022-11-27T16:11:51.361Z,4.50
2022-11-27T16:14:19.847Z,4.40
2022-11-27T16:16:48.449Z,4.40
2022-11-27T16:19:17.145Z,4.20
2022-11-27T16:21:45.650Z,4.40
2022-11-27T16:24:15.465Z,4.80
2022-11-27T16:26:44.106Z,4.80
2022-11-27T16:29:13.903Z,4.80
2022-11-27T16:31:42.479Z,4.70
2022-11-27T16:34:10.957Z,4.60
2022-11-27T16:36:41.900Z,4.60
2022-11-27T16:39:10.513Z,4.50
2022-11-27T16:41:39.279Z,4.40
2022-11-27T16:44:12.520Z,4.30
2022-11-27T16:46:44.285Z,4.30
2022-11-27T16:49:13.226Z,4.20
2022-11-27T16:51:42.346Z,4.20
2022-11-27T16:54:12.693Z,4.20
2022-11-27T16:56:41.098Z,4.10
2022-11-27T16:59:10.418Z,4.10
2022-11-27T17:01:40.893Z,4.10
2022-11-27T17:04:17.244Z,4.10
2022-11-27T17:06:46.581Z,4.10
2022-11-27T17:09:15.315Z,4.10
2022-11-27T17:11:45.342Z,4.10
2022-11-27T17:14:13.749Z,4.10
2022-11-27T17:16:42.833Z,4.20
2022-11-27T17:19:14.354Z,4.20
2022-11-27T17:21:43.339Z,4.20
2022-11-27T17:24:15.433Z,4.20
2022-11-27T17:26:45.167Z,4.20
2022-11-27T17:29:15.190Z,4.20
2022-11-27T17:31:44.172Z,4.20
2022-11-27T17:34:14.803Z,4.20
2022-11-27T17:36:44.855Z,4.30
2022-11-27T17:39:14.353Z,4.30
2022-11-27T17:41:44.526Z,4.20
2022-11-27T17:44:13.465Z,4.20
2022-11-27T17:46:44.965Z,4.20
2022-11-27T17:49:14.749Z,4.20
2022-11-27T17:51:43.154Z,4.20
2022-11-27T17:54:11.875Z,4.20
2022-11-27T17:56:40.301Z,4.20
2022-11-27T17:59:08.863Z,4.20
2022-11-27T18:01:37.420Z,4.20
2022-11-27T18:04:06.302Z,4.20
2022-11-27T18:06:36.172Z,4.20
2022-11-27T18:09:05.997Z,4.20
2022-11-27T18:11:34.909Z,4.20
2022-11-27T18:14:03.577Z,4.20
2022-11-27T18:16:33.985Z,4.30
2022-11-27T18:19:05.070Z,4.30
2022-11-27T18:21:34.985Z,4.30
2022-11-27T18:27:07.862Z,4.30
2022-11-27T18:29:37.661Z,4.30
2022-11-27T18:32:06.895Z,4.30
2022-11-27T18:34:35.490Z,4.30
2022-11-27T18:37:05.497Z,4.30
2022-11-27T18:39:35.223Z,4.30
2022-11-27T18:42:05.075Z,4.30
2022-11-27T18:44:37.242Z,4.30
2022-11-27T18:47:11.413Z,4.30
2022-11-27T18:49:40.833Z,4.30
2022-11-27T18:52:11.145Z,4.30
2022-11-27T18:54:39.659Z,4.30
2022-11-27T18:57:08.056Z,4.30
2022-11-27T18:59:36.760Z,4.30
2022-11-27T19:02:06.249Z,4.20
2022-11-27T19:04:37.399Z,4.30
2022-11-27T19:07:06.061Z,4.20
2022-11-27T19:09:35.884Z,4.20
2022-11-27T19:12:04.714Z,4.20
2022-11-27T19:14:33.405Z,4.20
2022-11-27T19:17:01.835Z,4.20
2022-11-27T19:22:21.461Z,4.20
2022-11-27T19:24:51.360Z,4.20
2022-11-27T19:27:19.900Z,4.20
2022-11-27T19:29:49.012Z,4.30
2022-11-27T19:32:17.425Z,4.20
2022-11-27T19:34:45.864Z,4.20
2022-11-27T19:37:14.300Z,4.30
2022-11-27T19:39:42.904Z,4.30
2022-11-27T19:42:12.904Z,4.30
2022-11-27T19:44:41.903Z,4.30
2022-11-27T19:47:10.609Z,4.30
2022-11-27T19:49:40.007Z,4.30
2022-11-27T19:52:08.504Z,4.30
2022-11-27T19:54:37.540Z,4.30
2022-11-27T19:57:06.047Z,4.30
2022-11-27T19:59:36.038Z,4.30
2022-11-27T20:02:04.651Z,4.20
2022-11-27T20:04:33.204Z,4.20
2022-11-27T20:07:01.730Z,4.20
2022-11-27T20:09:30.424Z,4.20
2022-11-27T20:11:59.362Z,4.20
2022-11-27T20:14:27.990Z,4.20
2022-11-27T20:16:57.934Z,4.20
2022-11-27T20:19:26.583Z,4.20
2022-11-27T20:21:55.063Z,4.20
2022-11-27T20:24:23.493Z,4.20
2022-11-27T20:26:52.023Z,4.10
2022-11-27T20:29:20.695Z,4.20
2022-11-27T20:31:49.127Z,4.20
2022-11-27T20:34:22.716Z,4.10
2022-11-27T20:36:51.878Z,4.10
2022-11-27T20:39:21.850Z,4.10
2022-11-27T20:41:51.918Z,4.00
2022-11-27T20:44:22.306Z,4.00
2022-11-27T20:46:51.204Z,4.10
2022-11-27T20:49:21.133Z,4.10
2022-11-27T20:51:50.640Z,4.10
2022-11-27T20:54:19.549Z,4.10
2022-11-27T20:56:51.018Z,4.10
2022-11-27T20:59:19.931Z,4.10
2022-11-27T21:01:48.643Z,4.10
2022-11-27T21:04:24.203Z,4.20
2022-11-27T21:06:53.167Z,4.20
2022-11-27T21:09:22.020Z,4.20
2022-11-27T21:11:50.472Z,4.10
2022-11-27T21:14:19.577Z,4.20
2022-11-27T21:16:51.589Z,4.20
2022-11-27T21:19:22.672Z,4.20
2022-11-27T21:21:51.567Z,4.20
2022-11-27T21:24:20.930Z,4.20
2022-11-27T21:26:49.980Z,4.20
2022-11-27T21:29:24.686Z,4.20
2022-11-27T21:31:54.037Z,4.20
2022-11-27T21:34:24.742Z,4.20
2022-11-27T21:36:53.230Z,4.20
2022-11-27T21:39:22.046Z,4.10
2022-11-27T21:41:51.802Z,4.10
2022-11-27T21:44:20.442Z,4.20
2022-11-27T21:46:49.749Z,4.10
2022-11-27T21:49:20.654Z,4.10
2022-11-27T21:51:53.515Z,4.20
2022-11-27T21:54:22.216Z,4.30
2022-11-27T21:56:52.778Z,4.60
2022-11-27T21:59:21.540Z,5.60
2022-11-27T22:01:50.236Z,6.30
2022-11-27T22:04:18.817Z,7.00
2022-11-27T22:06:48.137Z,7.60
2022-11-27T22:09:18.136Z,8.00
2022-11-27T22:11:47.634Z,8.40
2022-11-27T22:14:17.214Z,8.70
2022-11-27T22:16:47.103Z,8.80
2022-11-27T22:19:16.325Z,8.50
2022-11-27T22:21:45.503Z,8.30
2022-11-27T22:24:18.850Z,8.00
2022-11-27T22:26:49.948Z,7.90
2022-11-27T22:29:18.380Z,7.70
2022-11-27T22:31:46.917Z,7.60
2022-11-27T22:34:16.683Z,7.50
2022-11-27T22:36:45.190Z,7.40
2022-11-27T22:39:13.609Z,7.30
2022-11-27T22:41:42.515Z,7.20
2022-11-27T22:44:15.493Z,7.30
2022-11-27T22:46:44.359Z,7.40
2022-11-27T22:49:15.405Z,7.40
2022-11-27T22:51:44.130Z,7.60
2022-11-27T22:54:16.959Z,7.60
2022-11-27T22:56:46.607Z,7.40
2022-11-27T22:59:34.083Z,7.30
2022-11-27T23:02:03.753Z,7.30
2022-11-27T23:04:32.569Z,7.20
2022-11-27T23:07:01.443Z,7.00
2022-11-27T23:09:30.157Z,6.80
2022-11-27T23:11:58.704Z,6.50
2022-11-27T23:14:29.013Z,6.30
2022-11-27T23:16:57.467Z,6.20
2022-11-27T23:19:26.080Z,6.20
2022-11-27T23:21:54.591Z,6.10
2022-11-27T23:24:23.021Z,6.20
2022-11-27T23:26:51.487Z,6.30
2022-11-27T23:29:20.069Z,6.30
2022-11-27T23:31:49.925Z,6.30
2022-11-27T23:34:18.526Z,6.20
2022-11-27T23:36:46.964Z,6.00
2022-11-27T23:39:15.969Z,5.80
2022-11-27T23:41:44.754Z,5.70
2022-11-27T23:44:13.351Z,5.60
2022-11-27T23:46:41.822Z,5.50
2022-11-27T23:49:11.705Z,5.50
2022-11-27T23:51:40.213Z,5.40
2022-11-27T23:54:10.599Z,5.50
2022-11-27T23:56:40.793Z,5.70
2022-11-27T23:59:09.255Z,5.90
